createdAt,value
2019-05-18T00:00:27.521Z,15.41
2019-05-18T00:01:16.836Z,15.51
2019-05-18T00:01:58.215Z,15.51
2019-05-18T00:02:38.631Z,15.53
2019-05-18T00:03:19.063Z,15.62
2019-05-18T00:03:59.447Z,15.64
2019-05-18T00:04:39.833Z,15.6
2019-05-18T00:05:21.157Z,15.6
2019-05-18T00:06:01.587Z,15.59
2019-05-18T00:06:42.000Z,15.58
2019-05-18T00:07:22.416Z,15.6
2019-05-18T00:08:02.804Z,15.6
2019-05-18T00:08:43.296Z,15.58
2019-05-18T00:09:23.643Z,15.62
2019-05-18T00:10:04.081Z,15.59
2019-05-18T00:10:44.446Z,15.48
2019-05-18T00:11:24.841Z,15.41
2019-05-18T00:12:05.275Z,15.48
2019-05-18T00:12:45.646Z,15.46
2019-05-18T00:13:26.086Z,15.46
2019-05-18T00:14:06.468Z,15.41
2019-05-18T00:14:46.781Z,15.37
2019-05-18T00:15:27.210Z,15.33
2019-05-18T00:16:47.956Z,15.27
2019-05-18T00:17:28.336Z,15.2
2019-05-18T00:18:08.722Z,15.22
2019-05-18T00:18:49.127Z,15.23
2019-05-18T00:19:29.516Z,15.23
2019-05-18T00:20:09.929Z,15.2
2019-05-18T00:20:50.330Z,15.27
2019-05-18T00:21:30.726Z,15.3
2019-05-18T00:22:11.148Z,15.33
2019-05-18T00:22:51.496Z,15.31
2019-05-18T00:23:31.893Z,15.22
2019-05-18T00:24:12.328Z,15.23
2019-05-18T00:24:52.715Z,15.25
2019-05-18T00:25:33.120Z,15.13
2019-05-18T00:26:13.462Z,15.18
2019-05-18T00:26:53.914Z,15.12
2019-05-18T00:27:34.283Z,15.12
2019-05-18T00:28:14.706Z,15.18
2019-05-18T00:28:55.093Z,15.13
2019-05-18T00:29:35.419Z,15.05
2019-05-18T00:30:15.857Z,15.04
2019-05-18T00:30:56.242Z,15.03
2019-05-18T00:31:36.632Z,14.94
2019-05-18T00:32:17.030Z,14.98
2019-05-18T00:32:57.434Z,14.98
2019-05-18T00:34:18.217Z,14.93
2019-05-18T00:34:58.716Z,14.95
2019-05-18T00:35:39.015Z,14.91
2019-05-18T00:36:19.426Z,14.8
2019-05-18T00:36:59.744Z,14.93
2019-05-18T00:37:40.132Z,14.8
2019-05-18T00:38:20.540Z,14.83
2019-05-18T00:39:00.892Z,14.78
2019-05-18T00:39:41.362Z,14.69
2019-05-18T00:40:21.760Z,14.71
2019-05-18T00:41:45.290Z,14.67
2019-05-18T00:42:22.884Z,14.67
2019-05-18T00:43:03.286Z,14.75
2019-05-18T00:43:43.646Z,14.69
2019-05-18T00:44:24.058Z,14.69
2019-05-18T00:45:04.438Z,14.6
2019-05-18T00:45:44.882Z,14.63
2019-05-18T00:46:25.200Z,14.48
2019-05-18T00:47:05.620Z,14.42
2019-05-18T00:47:45.972Z,14.38
2019-05-18T00:48:26.338Z,14.3
2019-05-18T00:49:06.750Z,14.17
2019-05-18T00:49:47.164Z,14.21
2019-05-18T00:50:27.530Z,14.2
2019-05-18T00:51:07.942Z,14.12
2019-05-18T00:51:48.350Z,14.16
2019-05-18T00:52:28.703Z,14.16
2019-05-18T00:53:09.085Z,14.13
2019-05-18T00:53:49.491Z,14.12
2019-05-18T00:54:29.886Z,14.06
2019-05-18T00:55:10.214Z,14.17
2019-05-18T00:55:50.641Z,14.02
2019-05-18T00:56:31.003Z,14.02
2019-05-18T00:57:11.399Z,14.05
2019-05-18T00:57:51.771Z,14.04
2019-05-18T00:58:32.213Z,14.04
2019-05-18T00:59:15.948Z,14.06
2019-05-18T00:59:52.977Z,14.02
2019-05-18T01:00:33.431Z,13.94
2019-05-18T01:01:13.804Z,13.93
2019-05-18T01:01:54.202Z,13.98
2019-05-18T01:02:34.667Z,13.96
2019-05-18T01:03:14.961Z,13.91
2019-05-18T01:03:55.345Z,13.98
2019-05-18T01:04:35.744Z,13.94
2019-05-18T01:05:16.106Z,13.91
2019-05-18T01:05:56.523Z,13.91
2019-05-18T01:06:36.888Z,13.94
2019-05-18T01:07:17.299Z,13.96
2019-05-18T01:07:57.704Z,13.91
2019-05-18T01:09:18.466Z,13.83
2019-05-18T01:09:58.945Z,13.88
2019-05-18T01:10:39.302Z,13.83
2019-05-18T01:11:19.689Z,13.86
2019-05-18T01:12:00.045Z,13.87
2019-05-18T01:12:40.473Z,13.86
2019-05-18T01:13:20.844Z,13.79
2019-05-18T01:14:01.195Z,13.75
2019-05-18T01:14:41.644Z,13.86
2019-05-18T01:15:21.992Z,13.8
2019-05-18T01:16:02.450Z,13.9
2019-05-18T01:16:42.764Z,13.94
2019-05-18T01:17:23.172Z,13.93
2019-05-18T01:18:03.573Z,13.96
2019-05-18T01:18:44.030Z,14.01
2019-05-18T01:19:24.393Z,14.05
2019-05-18T01:20:04.827Z,13.99
2019-05-18T01:20:45.200Z,13.94
2019-05-18T01:21:25.610Z,14.04
2019-05-18T01:22:06.009Z,13.98
2019-05-18T01:22:46.434Z,13.91
2019-05-18T01:23:26.962Z,13.88
2019-05-18T01:24:07.379Z,13.91
2019-05-18T01:24:47.807Z,13.86
2019-05-18T01:25:28.150Z,13.9
2019-05-18T01:26:08.568Z,13.88
2019-05-18T01:26:48.986Z,13.87
2019-05-18T01:27:29.416Z,13.83
2019-05-18T01:28:09.796Z,13.86
2019-05-18T01:28:50.250Z,13.75
2019-05-18T01:29:30.659Z,13.69
2019-05-18T01:30:11.044Z,13.72
2019-05-18T01:30:51.450Z,13.66
2019-05-18T01:31:31.909Z,13.68
2019-05-18T01:32:12.244Z,13.65
2019-05-18T01:32:52.645Z,13.51
2019-05-18T01:33:33.057Z,13.57
2019-05-18T01:34:13.481Z,13.65
2019-05-18T01:34:53.811Z,13.63
2019-05-18T01:35:34.246Z,13.61
2019-05-18T01:36:14.605Z,13.57
2019-05-18T01:36:55.026Z,13.62
2019-05-18T01:37:35.414Z,13.55
2019-05-18T01:38:15.754Z,13.63
2019-05-18T01:38:56.150Z,13.53
2019-05-18T01:39:36.568Z,13.61
2019-05-18T01:40:17.055Z,13.59
2019-05-18T01:41:37.792Z,13.53
2019-05-18T01:42:18.204Z,13.55
2019-05-18T01:42:58.640Z,13.53
2019-05-18T01:43:39.030Z,13.57
2019-05-18T01:44:19.443Z,13.61
2019-05-18T01:44:59.846Z,13.51
2019-05-18T01:45:40.291Z,13.48
2019-05-18T01:46:20.656Z,13.51
2019-05-18T01:47:01.077Z,13.51
2019-05-18T01:47:41.473Z,13.62
2019-05-18T01:48:21.893Z,13.5
2019-05-18T01:49:02.308Z,13.5
2019-05-18T01:49:42.744Z,13.48
2019-05-18T01:50:23.139Z,13.47
2019-05-18T01:51:03.550Z,13.44
2019-05-18T01:51:43.986Z,13.44
2019-05-18T01:52:24.445Z,13.48
2019-05-18T01:53:04.804Z,13.5
2019-05-18T01:53:45.231Z,13.5
2019-05-18T01:54:25.639Z,13.44
2019-05-18T01:55:06.056Z,13.54
2019-05-18T01:55:46.420Z,13.5
2019-05-18T01:56:26.817Z,13.48
2019-05-18T01:57:07.239Z,13.44
2019-05-18T01:57:47.671Z,13.48
2019-05-18T01:58:28.118Z,13.51
2019-05-18T01:59:08.454Z,13.47
2019-05-18T01:59:48.865Z,13.39
2019-05-18T02:00:29.289Z,13.29
2019-05-18T02:01:09.719Z,13.35
2019-05-18T02:01:50.099Z,13.31
2019-05-18T02:02:30.507Z,13.36
2019-05-18T02:03:10.925Z,13.31
2019-05-18T02:03:51.345Z,13.35
2019-05-18T02:04:31.768Z,13.32
2019-05-18T02:05:12.192Z,13.46
2019-05-18T02:05:52.585Z,13.36
2019-05-18T02:06:33.014Z,13.41
2019-05-18T02:07:13.414Z,13.36
2019-05-18T02:07:53.816Z,13.31
2019-05-18T02:08:34.224Z,13.41
2019-05-18T02:09:14.638Z,13.47
2019-05-18T02:09:55.029Z,13.51
2019-05-18T02:10:35.451Z,13.48
2019-05-18T02:11:15.879Z,13.59
2019-05-18T02:11:56.308Z,13.46
2019-05-18T02:12:36.721Z,13.48
2019-05-18T02:13:17.137Z,13.44
2019-05-18T02:13:57.559Z,13.47
2019-05-18T02:14:38.001Z,13.46
2019-05-18T02:15:18.494Z,13.44
2019-05-18T02:15:58.864Z,13.43
2019-05-18T02:16:39.285Z,13.43
2019-05-18T02:17:19.720Z,13.47
2019-05-18T02:18:00.140Z,13.47
2019-05-18T02:18:40.575Z,13.48
2019-05-18T02:19:20.997Z,13.44
2019-05-18T02:20:01.415Z,13.39
2019-05-18T02:20:41.844Z,13.5
2019-05-18T02:21:22.271Z,13.32
2019-05-18T02:22:02.691Z,13.32
2019-05-18T02:22:43.116Z,13.35
2019-05-18T02:23:23.541Z,13.28
2019-05-18T02:24:03.952Z,13.32
2019-05-18T02:24:44.368Z,13.38
2019-05-18T02:25:24.787Z,13.27
2019-05-18T02:26:05.197Z,13.21
2019-05-18T02:26:45.628Z,13.22
2019-05-18T02:27:26.007Z,13.28
2019-05-18T02:28:06.410Z,13.21
2019-05-18T02:28:46.835Z,13.25
2019-05-18T02:29:27.217Z,13.19
2019-05-18T02:30:07.633Z,13.14
2019-05-18T02:31:28.425Z,13.04
2019-05-18T02:32:08.821Z,13.01
2019-05-18T02:32:49.231Z,12.99
2019-05-18T02:33:29.683Z,12.95
2019-05-18T02:34:10.116Z,12.98
2019-05-18T02:34:50.540Z,12.94
2019-05-18T02:35:30.902Z,13.01
2019-05-18T02:36:11.332Z,12.91
2019-05-18T02:36:51.767Z,12.95
2019-05-18T02:37:32.185Z,12.94
2019-05-18T02:38:12.610Z,13.06
2019-05-18T02:38:53.032Z,13.1
2019-05-18T02:39:33.453Z,13.14
2019-05-18T02:40:13.881Z,13.25
2019-05-18T02:40:54.316Z,13.38
2019-05-18T02:41:34.757Z,13.43
2019-05-18T02:42:15.163Z,13.47
2019-05-18T02:42:55.589Z,13.46
2019-05-18T02:43:36.034Z,13.61
2019-05-18T02:44:16.444Z,13.59
2019-05-18T02:44:56.855Z,13.69
2019-05-18T02:45:37.278Z,13.79
2019-05-18T02:46:17.715Z,13.81
2019-05-18T02:46:58.152Z,13.9
2019-05-18T02:47:38.551Z,13.88
2019-05-18T02:48:59.407Z,13.94
2019-05-18T02:49:39.825Z,13.96
2019-05-18T02:50:20.235Z,13.93
2019-05-18T02:51:00.637Z,13.94
2019-05-18T02:51:41.032Z,13.98
2019-05-18T02:52:21.451Z,13.99
2019-05-18T02:53:01.870Z,13.98
2019-05-18T02:53:42.300Z,13.96
2019-05-18T02:54:22.660Z,13.98
2019-05-18T02:55:03.047Z,13.93
2019-05-18T02:55:43.462Z,13.91
2019-05-18T02:56:23.909Z,13.88
2019-05-18T02:57:04.284Z,13.93
2019-05-18T02:57:44.640Z,13.88
2019-05-18T02:58:25.006Z,13.84
2019-05-18T02:59:05.361Z,13.84
2019-05-18T02:59:45.799Z,13.75
2019-05-18T03:00:26.129Z,13.72
2019-05-18T03:01:06.493Z,13.84
2019-05-18T03:01:46.891Z,13.87
2019-05-18T03:02:27.305Z,13.83
2019-05-18T03:03:07.724Z,13.75
2019-05-18T03:03:48.055Z,13.87
2019-05-18T03:04:28.461Z,13.86
2019-05-18T03:05:08.822Z,13.84
2019-05-18T03:05:49.218Z,13.8
2019-05-18T03:06:29.590Z,13.81
2019-05-18T03:07:09.994Z,13.73
2019-05-18T03:07:50.365Z,13.72
2019-05-18T03:08:30.763Z,13.59
2019-05-18T03:09:11.128Z,13.59
2019-05-18T03:09:51.535Z,13.62
2019-05-18T03:10:31.917Z,13.62
2019-05-18T03:11:12.285Z,13.46
2019-05-18T03:11:52.697Z,13.61
2019-05-18T03:12:33.113Z,13.55
2019-05-18T03:13:13.477Z,13.63
2019-05-18T03:13:53.886Z,13.57
2019-05-18T03:14:34.333Z,13.53
2019-05-18T03:15:14.683Z,13.66
2019-05-18T03:15:55.074Z,13.54
2019-05-18T03:16:35.499Z,13.51
2019-05-18T03:17:15.862Z,13.51
2019-05-18T03:17:56.271Z,13.51
2019-05-18T03:18:36.711Z,13.51
2019-05-18T03:19:17.133Z,13.57
2019-05-18T03:19:57.528Z,13.62
2019-05-18T03:21:18.307Z,13.61
2019-05-18T03:22:00.966Z,13.54
2019-05-18T03:22:39.120Z,13.61
2019-05-18T03:23:19.503Z,13.57
2019-05-18T03:23:59.900Z,13.65
2019-05-18T03:24:40.321Z,13.55
2019-05-18T03:25:20.699Z,13.61
2019-05-18T03:26:01.092Z,13.5
2019-05-18T03:27:28.632Z,13.59
2019-05-18T03:28:08.926Z,13.48
2019-05-18T03:28:49.315Z,13.59
2019-05-18T03:29:29.742Z,13.65
2019-05-18T03:30:10.194Z,13.71
2019-05-18T03:30:50.594Z,13.65
2019-05-18T03:31:31.057Z,13.61
2019-05-18T03:32:11.431Z,13.63
2019-05-18T03:32:51.874Z,13.61
2019-05-18T03:33:32.279Z,13.59
2019-05-18T03:34:12.696Z,13.66
2019-05-18T03:34:53.112Z,13.5
2019-05-18T03:35:33.521Z,13.57
2019-05-18T03:36:13.951Z,13.57
2019-05-18T03:36:54.362Z,13.65
2019-05-18T03:37:34.741Z,13.59
2019-05-18T03:38:15.130Z,13.57
2019-05-18T03:38:55.548Z,13.62
2019-05-18T03:39:35.972Z,13.62
2019-05-18T03:40:16.390Z,13.62
2019-05-18T03:40:56.809Z,13.63
2019-05-18T03:41:37.232Z,13.69
2019-05-18T03:42:17.643Z,13.66
2019-05-18T03:42:58.052Z,13.79
2019-05-18T03:43:38.464Z,13.8
2019-05-18T03:44:18.870Z,13.84
2019-05-18T03:44:59.220Z,13.83
2019-05-18T03:45:39.636Z,13.86
2019-05-18T03:46:23.631Z,13.83
2019-05-18T03:47:00.470Z,13.88
2019-05-18T03:47:40.896Z,13.83
2019-05-18T03:48:21.278Z,13.76
2019-05-18T03:49:01.698Z,13.66
2019-05-18T03:49:42.177Z,13.68
2019-05-18T03:50:22.535Z,13.69
2019-05-18T03:51:02.953Z,13.66
2019-05-18T03:51:43.356Z,13.69
2019-05-18T03:52:23.764Z,13.72
2019-05-18T03:53:04.164Z,13.62
2019-05-18T03:53:44.590Z,13.71
2019-05-18T03:54:25.021Z,13.59
2019-05-18T03:55:05.436Z,13.66
2019-05-18T03:55:45.877Z,13.66
2019-05-18T03:56:26.293Z,13.62
2019-05-18T03:57:06.717Z,13.61
2019-05-18T03:57:47.159Z,13.62
2019-05-18T03:58:27.584Z,13.72
2019-05-18T03:59:08.005Z,13.63
2019-05-18T03:59:48.422Z,13.69
2019-05-18T04:00:28.823Z,13.71
2019-05-18T04:01:09.231Z,13.61
2019-05-18T04:01:49.662Z,13.63
2019-05-18T04:02:30.095Z,13.66
2019-05-18T04:03:10.525Z,13.63
2019-05-18T04:03:50.939Z,13.63
2019-05-18T04:04:31.371Z,13.66
2019-05-18T04:05:11.801Z,13.72
2019-05-18T04:05:52.231Z,13.71
2019-05-18T04:06:32.646Z,13.69
2019-05-18T04:07:13.080Z,13.72
2019-05-18T04:07:53.517Z,13.62
2019-05-18T04:08:33.943Z,13.69
2019-05-18T04:09:14.371Z,13.65
2019-05-18T04:09:54.781Z,13.72
2019-05-18T04:10:35.139Z,13.66
2019-05-18T04:11:15.522Z,13.66
2019-05-18T04:11:55.918Z,13.75
2019-05-18T04:12:36.306Z,13.86
2019-05-18T04:13:16.709Z,13.86
2019-05-18T04:13:57.075Z,13.94
2019-05-18T04:14:37.465Z,14.02
2019-05-18T04:15:17.876Z,13.99
2019-05-18T04:17:15.525Z,14.08
2019-05-18T04:17:55.798Z,14.13
2019-05-18T04:18:36.208Z,14.11
2019-05-18T04:19:16.623Z,14.09
2019-05-18T04:19:57.038Z,14.04
2019-05-18T04:20:37.445Z,13.94
2019-05-18T04:21:17.865Z,13.91
2019-05-18T04:21:58.292Z,13.98
2019-05-18T04:22:38.725Z,13.93
2019-05-18T04:23:19.113Z,13.96
2019-05-18T04:23:59.572Z,13.98
2019-05-18T04:24:39.966Z,13.94
2019-05-18T04:25:20.386Z,13.99
2019-05-18T04:26:00.791Z,14.08
2019-05-18T04:26:41.213Z,14.09
2019-05-18T04:27:21.630Z,14.04
2019-05-18T05:06:30.014Z,12.77
2019-05-18T05:07:10.711Z,12.73
2019-05-18T05:07:51.370Z,12.73
2019-05-18T05:08:31.481Z,12.79
2019-05-18T05:09:11.896Z,12.77
2019-05-18T05:09:52.327Z,12.73
2019-05-18T05:10:32.722Z,12.77
2019-05-18T05:11:13.146Z,12.84
2019-05-18T05:11:53.573Z,12.91
2019-05-18T05:12:33.990Z,12.8
2019-05-18T05:13:14.449Z,13.01
2019-05-18T05:13:54.831Z,13.01
2019-05-18T05:14:35.213Z,13.06
2019-05-18T05:15:15.662Z,13.16
2019-05-18T05:15:56.032Z,13.24
2019-05-18T05:16:36.474Z,13.27
2019-05-18T05:17:16.821Z,13.25
2019-05-18T05:18:37.615Z,13.38
2019-05-18T05:19:18.022Z,13.48
2019-05-18T05:19:58.440Z,13.51
2019-05-18T05:20:38.804Z,13.59
2019-05-18T05:21:19.231Z,13.54
2019-05-18T05:21:59.646Z,13.59
2019-05-18T05:22:40.067Z,13.62
2019-05-18T05:23:20.490Z,13.66
2019-05-18T05:24:00.919Z,13.72
2019-05-18T05:24:41.341Z,13.81
2019-05-18T05:25:21.764Z,13.86
2019-05-18T05:26:02.185Z,14.01
2019-05-18T05:26:42.614Z,13.96
2019-05-18T05:27:23.039Z,13.99
2019-05-18T05:28:03.461Z,14.06
2019-05-18T05:28:43.891Z,14.09
2019-05-18T05:29:24.327Z,14.06
2019-05-18T05:30:04.763Z,14.12
2019-05-18T05:30:45.203Z,14.12
2019-05-18T05:31:25.625Z,14.12
2019-05-18T05:32:06.047Z,14.21
2019-05-18T05:32:46.464Z,14.17
2019-05-18T05:33:26.884Z,14.21
2019-05-18T05:34:07.310Z,14.21
2019-05-18T05:34:47.744Z,14.27
2019-05-18T05:35:28.163Z,14.31
2019-05-18T05:36:08.594Z,14.29
2019-05-18T05:36:49.012Z,14.3
2019-05-18T05:37:29.441Z,14.41
2019-05-18T05:38:09.860Z,14.44
2019-05-18T05:38:50.297Z,14.44
2019-05-18T05:39:30.666Z,14.52
2019-05-18T05:40:11.082Z,14.41
2019-05-18T05:40:51.474Z,14.53
2019-05-18T05:41:31.882Z,14.54
2019-05-18T05:42:12.313Z,14.56
2019-05-18T05:42:52.702Z,14.67
2019-05-18T05:43:33.127Z,14.61
2019-05-18T05:44:13.531Z,14.66
2019-05-18T05:44:53.936Z,14.56
2019-05-18T05:45:34.341Z,14.61
2019-05-18T05:46:14.742Z,14.71
2019-05-18T05:46:55.150Z,14.66
2019-05-18T05:47:35.547Z,14.8
2019-05-18T05:48:15.956Z,14.75
2019-05-18T05:48:56.369Z,14.74
2019-05-18T05:49:36.774Z,14.82
2019-05-18T05:50:57.592Z,15
2019-05-18T05:51:37.979Z,15.04
2019-05-18T05:52:18.392Z,15.12
2019-05-18T05:52:58.730Z,15.22
2019-05-18T05:53:39.109Z,15.18
2019-05-18T05:54:19.472Z,15.2
2019-05-18T05:54:59.854Z,15.3
2019-05-18T05:55:40.231Z,15.28
2019-05-18T05:56:20.601Z,15.28
2019-05-18T05:57:01.005Z,15.3
2019-05-18T05:57:41.424Z,15.31
2019-05-18T05:58:21.797Z,15.41
2019-05-18T05:59:02.185Z,15.37
2019-05-18T05:59:42.559Z,15.4
2019-05-18T06:00:22.937Z,15.44
2019-05-18T06:01:03.321Z,15.52
2019-05-18T06:01:43.717Z,15.48
2019-05-18T06:02:24.122Z,15.56
2019-05-18T06:03:04.587Z,15.62
2019-05-18T06:03:44.989Z,15.67
2019-05-18T06:04:25.378Z,15.81
2019-05-18T06:05:05.801Z,15.85
2019-05-18T06:05:46.231Z,15.88
2019-05-18T06:06:26.651Z,15.92
2019-05-18T06:07:07.099Z,15.95
2019-05-18T06:07:47.520Z,16.01
2019-05-18T06:08:27.954Z,16.1
2019-05-18T06:09:08.385Z,16.07
2019-05-18T06:09:48.782Z,16.11
2019-05-18T06:10:29.179Z,16.11
2019-05-18T06:11:09.602Z,16.11
2019-05-18T06:11:50.042Z,16.25
2019-05-18T06:12:30.462Z,16.25
2019-05-18T06:14:43.048Z,16.36
2019-05-18T06:15:23.518Z,16.42
2019-05-18T06:16:03.935Z,16.48
2019-05-18T06:16:44.360Z,16.52
2019-05-18T06:17:24.796Z,16.51
2019-05-18T06:18:05.213Z,16.47
2019-05-18T06:18:45.622Z,16.52
2019-05-18T06:19:26.046Z,16.51
2019-05-18T06:20:06.475Z,16.54
2019-05-18T06:20:51.268Z,16.59
2019-05-18T06:21:27.280Z,16.57
2019-05-18T06:22:07.702Z,16.59
2019-05-18T06:22:48.131Z,16.52
2019-05-18T06:23:28.550Z,16.51
2019-05-18T06:24:08.970Z,16.6
2019-05-18T06:24:49.403Z,16.52
2019-05-18T06:25:33.928Z,16.6
2019-05-18T06:26:10.365Z,16.6
2019-05-18T06:26:50.782Z,16.63
2019-05-18T06:27:31.192Z,16.63
2019-05-18T06:28:11.618Z,16.6
2019-05-18T06:28:52.020Z,16.63
2019-05-18T06:29:32.438Z,16.7
2019-05-18T06:30:53.257Z,16.85
2019-05-18T06:31:33.673Z,16.91
2019-05-18T06:32:14.065Z,16.91
2019-05-18T06:32:54.463Z,17.03
2019-05-18T06:35:07.144Z,17.28
2019-05-18T06:35:47.515Z,17.09
2019-05-18T06:36:27.941Z,17.14
2019-05-18T06:37:08.384Z,17.14
2019-05-18T06:37:48.790Z,17.17
2019-05-18T06:38:29.213Z,17.27
2019-05-18T06:39:09.636Z,17.32
2019-05-18T06:39:50.063Z,17.43
2019-05-18T06:40:30.480Z,17.38
2019-05-18T06:41:10.898Z,17.38
2019-05-18T06:41:51.336Z,17.35
2019-05-18T06:42:31.734Z,17.45
2019-05-18T06:43:12.199Z,17.49
2019-05-18T06:43:52.531Z,17.55
2019-05-18T06:44:32.957Z,17.62
2019-05-18T06:45:53.796Z,17.57
2019-05-18T06:46:34.175Z,17.4
2019-05-18T06:47:14.622Z,17.39
2019-05-18T06:47:54.983Z,17.35
2019-05-18T06:48:35.429Z,17.4
2019-05-18T06:49:15.801Z,17.42
2019-05-18T06:49:56.220Z,17.47
2019-05-18T06:50:36.603Z,17.51
2019-05-18T06:51:17.010Z,17.66
2019-05-18T06:51:57.442Z,17.83
2019-05-18T06:52:37.849Z,17.98
2019-05-18T06:53:18.255Z,18.2
2019-05-18T06:53:58.682Z,18.41
2019-05-18T06:54:39.113Z,18.42
2019-05-18T06:55:19.557Z,18.6
2019-05-18T06:55:59.949Z,18.59
2019-05-18T06:56:40.388Z,18.59
2019-05-18T06:57:20.776Z,18.65
2019-05-18T06:58:01.142Z,18.78
2019-05-18T06:58:41.570Z,18.78
2019-05-18T06:59:22.051Z,18.89
2019-05-18T07:00:02.422Z,18.89
2019-05-18T07:01:23.274Z,19.07
2019-05-18T07:02:03.741Z,19.31
2019-05-18T07:02:44.108Z,19.45
2019-05-18T07:03:24.566Z,19.7
2019-05-18T07:04:04.942Z,19.83
2019-05-18T07:04:45.293Z,20
2019-05-18T07:06:57.351Z,19.87
2019-05-18T07:10:01.500Z,20.19
2019-05-18T07:10:41.878Z,20.25
2019-05-18T07:11:22.327Z,20.13
2019-05-18T07:12:02.652Z,20.23
2019-05-18T07:12:43.940Z,20.31
2019-05-18T07:13:24.369Z,20.13
2019-05-18T07:14:04.754Z,19.95
2019-05-18T07:14:45.174Z,19.97
2019-05-18T07:15:25.604Z,20.02
2019-05-18T07:16:06.004Z,19.97
2019-05-18T07:16:46.408Z,20.02
2019-05-18T07:17:26.785Z,20.05
2019-05-18T07:18:10.473Z,20.12
2019-05-18T07:19:13.820Z,20.13
2019-05-18T07:19:54.187Z,20.15
2019-05-18T07:20:34.564Z,20.27
2019-05-18T07:21:22.104Z,20.37
2019-05-18T07:23:28.155Z,20.81
2019-05-18T07:26:33.236Z,20.96
2019-05-18T07:27:16.693Z,20.91
2019-05-18T07:27:57.078Z,20.93
2019-05-18T07:28:40.859Z,20.91
2019-05-18T07:29:22.957Z,20.98
2019-05-18T07:30:04.927Z,20.98
2019-05-18T07:30:46.094Z,21.05
2019-05-18T07:31:27.392Z,21.09
2019-05-18T07:32:07.865Z,20.93
2019-05-18T07:32:49.220Z,20.85
2019-05-18T07:33:29.595Z,20.68
2019-05-18T07:34:10.003Z,20.64
2019-05-18T07:34:51.718Z,20.63
2019-05-18T07:35:32.201Z,20.61
2019-05-18T07:36:12.744Z,20.58
2019-05-18T07:36:53.108Z,20.58
2019-05-18T07:37:33.630Z,20.66
2019-05-18T07:38:16.645Z,20.72
2019-05-18T07:38:57.552Z,20.66
2019-05-18T07:39:38.076Z,20.68
2019-05-18T07:40:19.063Z,20.66
2019-05-18T07:40:59.803Z,20.69
2019-05-18T07:41:46.493Z,20.61
2019-05-18T07:42:20.791Z,20.63
2019-05-18T07:43:01.391Z,20.71
2019-05-18T07:43:41.816Z,20.64
2019-05-18T07:44:22.410Z,20.63
2019-05-18T07:45:03.148Z,20.48
2019-05-18T07:45:43.778Z,20.48
2019-05-18T07:46:24.654Z,20.34
2019-05-18T07:47:05.178Z,20.27
2019-05-18T07:47:45.911Z,20.12
2019-05-18T07:48:26.189Z,20.05
2019-05-18T07:49:06.590Z,19.97
2019-05-18T07:49:46.980Z,19.92
2019-05-18T07:50:27.509Z,19.86
2019-05-18T07:51:08.697Z,20
2019-05-18T07:51:50.856Z,19.95
2019-05-18T07:52:31.292Z,20.08
2019-05-18T07:53:11.695Z,20.08
2019-05-18T07:53:52.065Z,20.1
2019-05-18T07:54:32.865Z,20.1
2019-05-18T07:55:13.004Z,20.17
2019-05-18T07:55:53.401Z,20.23
2019-05-18T07:56:33.758Z,20.37
2019-05-18T07:57:14.154Z,20.5
2019-05-18T07:57:54.675Z,20.64
2019-05-18T07:58:36.841Z,20.83
2019-05-18T07:59:19.694Z,20.87
2019-05-18T07:59:57.598Z,21.03
2019-05-18T08:00:38.038Z,21.13
2019-05-18T08:01:18.444Z,21.27
2019-05-18T08:01:58.801Z,21.43
2019-05-18T08:02:39.242Z,21.51
2019-05-18T08:03:19.590Z,21.66
2019-05-18T08:04:00.027Z,21.67
2019-05-18T08:04:40.396Z,21.85
2019-05-18T08:06:01.228Z,21.96
2019-05-18T08:06:41.737Z,22.05
2019-05-18T08:07:22.015Z,22.01
2019-05-18T08:08:02.471Z,21.91
2019-05-18T08:08:42.865Z,21.83
2019-05-18T08:09:23.299Z,21.86
2019-05-18T08:10:04.611Z,21.81
2019-05-18T08:10:45.134Z,21.81
2019-05-18T08:11:25.522Z,21.75
2019-05-18T08:12:05.879Z,21.74
2019-05-18T08:12:46.566Z,21.83
2019-05-18T08:13:27.186Z,21.94
2019-05-18T08:14:07.602Z,22.02
2019-05-18T08:14:48.004Z,21.93
2019-05-18T08:15:28.450Z,21.93
2019-05-18T08:16:27.695Z,22.02
2019-05-18T08:17:08.177Z,21.86
2019-05-18T08:17:48.528Z,21.94
2019-05-18T08:18:28.925Z,21.85
2019-05-18T08:19:09.311Z,21.59
2019-05-18T08:19:49.759Z,21.59
2019-05-18T08:20:30.258Z,21.36
2019-05-18T08:21:10.771Z,21.26
2019-05-18T08:21:53.438Z,21.19
2019-05-18T08:22:31.531Z,21.06
2019-05-18T08:23:11.947Z,20.96
2019-05-18T08:25:02.881Z,20.85
2019-05-18T08:25:44.058Z,20.6
2019-05-18T08:26:22.866Z,20.5
2019-05-18T08:30:06.097Z,20.53
2019-05-18T08:31:06.445Z,20.54
2019-05-18T08:31:54.644Z,20.64
2019-05-18T08:32:34.964Z,20.64
2019-05-18T08:33:16.586Z,20.66
2019-05-18T08:33:56.971Z,20.82
2019-05-18T08:34:37.327Z,20.87
2019-05-18T08:35:19.470Z,21
2019-05-18T08:35:58.586Z,21.24
2019-05-18T08:36:39.075Z,21.27
2019-05-18T08:37:19.493Z,21.38
2019-05-18T08:37:59.924Z,21.52
2019-05-18T08:38:40.326Z,21.49
2019-05-18T08:39:20.617Z,21.58
2019-05-18T08:40:01.008Z,21.71
2019-05-18T08:40:41.435Z,21.71
2019-05-18T08:41:21.863Z,21.68
2019-05-18T08:42:02.252Z,21.86
2019-05-18T08:45:12.360Z,22.61
2019-05-18T08:45:52.978Z,22.82
2019-05-18T08:46:33.380Z,23.04
2019-05-18T08:47:14.044Z,23.18
2019-05-18T08:47:54.522Z,23.39
2019-05-18T08:48:34.871Z,23.44
2019-05-18T08:49:15.278Z,23.53
2019-05-18T08:50:00.292Z,23.74
2019-05-18T08:50:40.680Z,23.78
2019-05-18T08:51:21.331Z,23.87
2019-05-18T08:52:08.069Z,23.96
2019-05-18T08:52:42.249Z,24.08
2019-05-18T08:53:22.632Z,24.08
2019-05-18T08:54:03.153Z,24.23
2019-05-18T08:54:43.407Z,24.31
2019-05-18T08:55:25.633Z,24.31
2019-05-18T08:56:06.134Z,24.19
2019-05-18T08:56:46.513Z,24.21
2019-05-18T08:57:26.793Z,24.34
2019-05-18T08:58:07.221Z,24.31
2019-05-18T08:59:28.089Z,24.45
2019-05-18T09:00:08.480Z,24.53
2019-05-18T09:00:48.975Z,24.68
2019-05-18T09:01:29.457Z,24.64
2019-05-18T09:02:09.964Z,24.75
2019-05-18T09:02:50.476Z,24.84
2019-05-18T09:03:30.873Z,24.84
2019-05-18T09:04:11.246Z,24.92
2019-05-18T09:04:51.646Z,25.08
2019-05-18T09:05:32.087Z,25.22
2019-05-18T09:06:12.482Z,25.42
2019-05-18T09:06:52.935Z,25.69
2019-05-18T09:07:33.411Z,25.85
2019-05-18T09:08:13.784Z,26.04
2019-05-18T09:08:54.178Z,26.08
2019-05-18T09:09:34.622Z,26.06
2019-05-18T09:10:14.997Z,26.23
2019-05-18T09:10:57.333Z,26.28
2019-05-18T09:11:37.782Z,26.16
2019-05-18T09:12:18.107Z,26.16
2019-05-18T09:12:58.466Z,26.13
2019-05-18T09:13:46.367Z,26.06
2019-05-18T09:14:27.802Z,25.83
2019-05-18T09:15:08.316Z,25.85
2019-05-18T09:15:48.981Z,25.79
2019-05-18T09:16:29.310Z,25.76
2019-05-18T09:17:09.778Z,25.69
2019-05-18T09:18:30.508Z,25.66
2019-05-18T09:19:11.858Z,25.66
2019-05-18T09:19:53.856Z,25.66
2019-05-18T09:20:34.260Z,25.53
2019-05-18T09:21:14.719Z,25.2
2019-05-18T09:21:55.062Z,25.05
2019-05-18T09:22:35.508Z,25.07
2019-05-18T09:23:15.822Z,25.22
2019-05-18T09:23:58.139Z,25.24
2019-05-18T09:24:41.246Z,25.11
2019-05-18T09:25:23.635Z,24.97
2019-05-18T09:26:03.987Z,24.87
2019-05-18T09:26:44.525Z,24.82
2019-05-18T09:27:24.902Z,24.82
2019-05-18T09:28:05.717Z,24.75
2019-05-18T09:28:47.240Z,24.68
2019-05-18T09:29:27.587Z,24.66
2019-05-18T09:30:08.503Z,24.75
2019-05-18T09:30:48.344Z,24.52
2019-05-18T09:31:28.898Z,24.41
2019-05-18T09:32:09.273Z,24.31
2019-05-18T09:32:49.723Z,24.31
2019-05-18T09:33:30.760Z,24.31
2019-05-18T09:34:12.133Z,24.39
2019-05-18T09:35:10.593Z,24.44
2019-05-18T09:35:51.340Z,24.41
2019-05-18T09:36:31.785Z,24.3
2019-05-18T09:37:13.948Z,24.31
2019-05-18T09:37:54.267Z,24.39
2019-05-18T09:38:34.692Z,24.49
2019-05-18T09:39:15.703Z,24.59
2019-05-18T09:39:56.072Z,24.63
2019-05-18T09:40:36.560Z,24.75
2019-05-18T09:41:16.990Z,24.98
2019-05-18T09:42:06.356Z,25.02
2019-05-18T09:42:46.770Z,24.93
2019-05-18T09:43:27.335Z,24.82
2019-05-18T09:44:07.758Z,24.89
2019-05-18T09:44:49.969Z,25.04
2019-05-18T09:45:30.400Z,25.2
2019-05-18T09:46:10.800Z,25.35
2019-05-18T09:46:51.298Z,25.57
2019-05-18T09:47:32.375Z,25.86
2019-05-18T09:48:15.327Z,25.97
2019-05-18T09:48:55.089Z,26.04
2019-05-18T09:49:35.458Z,26.23
2019-05-18T09:50:15.929Z,26.34
2019-05-18T09:50:56.276Z,26.36
2019-05-18T09:51:36.693Z,26.38
2019-05-18T09:52:17.076Z,26.46
2019-05-18T09:52:57.505Z,26.41
2019-05-18T09:53:50.619Z,26.44